sensor_id;sensor_type;location;lat;lon;timestamp;P1;durP1;ratioP1;P2;durP2;ratioP2
14892;SDS011;7538;53.626;9.906;2023-01-15T00:00:48;7.47;;;1.40;;
14892;SDS011;7538;53.626;9.906;2023-01-15T00:03:15;3.80;;;1.30;;
14892;SDS011;7538;53.626;9.906;2023-01-15T00:05:42;5.30;;;1.30;;
14892;SDS011;7538;53.626;9.906;2023-01-15T00:08:09;2.87;;;1.20;;
14892;SDS011;7538;53.626;9.906;2023-01-15T00:10:36;6.10;;;1.50;;
14892;SDS011;7538;53.626;9.906;2023-01-15T00:13:03;5.00;;;1.47;;
14892;SDS011;7538;53.626;9.906;2023-01-15T00:15:30;5.23;;;1.60;;
14892;SDS011;7538;53.626;9.906;2023-01-15T00:17:58;6.07;;;1.53;;
14892;SDS011;7538;53.626;9.906;2023-01-15T00:20:25;7.27;;;1.53;;
14892;SDS011;7538;53.626;9.906;2023-01-15T00:22:51;5.77;;;1.70;;
14892;SDS011;7538;53.626;9.906;2023-01-15T00:25:18;6.23;;;1.90;;
14892;SDS011;7538;53.626;9.906;2023-01-15T00:28:03;6.00;;;1.50;;
14892;SDS011;7538;53.626;9.906;2023-01-15T00:30:29;7.00;;;1.47;;
14892;SDS011;7538;53.626;9.906;2023-01-15T00:32:58;5.63;;;1.83;;
14892;SDS011;7538;53.626;9.906;2023-01-15T00:35:24;4.47;;;1.23;;
14892;SDS011;7538;53.626;9.906;2023-01-15T00:37:51;5.27;;;1.70;;
14892;SDS011;7538;53.626;9.906;2023-01-15T00:40:19;6.07;;;1.40;;
14892;SDS011;7538;53.626;9.906;2023-01-15T00:42:46;5.23;;;1.50;;
14892;SDS011;7538;53.626;9.906;2023-01-15T00:45:12;5.80;;;1.43;;
14892;SDS011;7538;53.626;9.906;2023-01-15T00:47:40;8.50;;;2.03;;
14892;SDS011;7538;53.626;9.906;2023-01-15T00:50:11;4.93;;;1.47;;
14892;SDS011;7538;53.626;9.906;2023-01-15T00:52:39;5.07;;;1.73;;
14892;SDS011;7538;53.626;9.906;2023-01-15T00:55:06;10.83;;;1.40;;
14892;SDS011;7538;53.626;9.906;2023-01-15T00:57:33;5.40;;;1.47;;
14892;SDS011;7538;53.626;9.906;2023-01-15T01:00:00;7.90;;;2.03;;
14892;SDS011;7538;53.626;9.906;2023-01-15T01:02:28;5.40;;;1.37;;
14892;SDS011;7538;53.626;9.906;2023-01-15T01:04:54;6.57;;;1.30;;
14892;SDS011;7538;53.626;9.906;2023-01-15T01:07:23;4.33;;;1.40;;
14892;SDS011;7538;53.626;9.906;2023-01-15T01:09:49;6.13;;;1.70;;
14892;SDS011;7538;53.626;9.906;2023-01-15T01:12:16;5.37;;;1.67;;
14892;SDS011;7538;53.626;9.906;2023-01-15T01:14:45;5.17;;;1.30;;
14892;SDS011;7538;53.626;9.906;2023-01-15T01:17:11;4.10;;;1.27;;
14892;SDS011;7538;53.626;9.906;2023-01-15T01:19:38;4.87;;;1.40;;
14892;SDS011;7538;53.626;9.906;2023-01-15T01:22:05;7.10;;;2.07;;
14892;SDS011;7538;53.626;9.906;2023-01-15T01:24:33;4.40;;;1.13;;
14892;SDS011;7538;53.626;9.906;2023-01-15T01:27:00;6.40;;;1.50;;
14892;SDS011;7538;53.626;9.906;2023-01-15T01:29:27;7.87;;;1.57;;
14892;SDS011;7538;53.626;9.906;2023-01-15T01:31:54;6.23;;;1.70;;
14892;SDS011;7538;53.626;9.906;2023-01-15T01:34:20;5.47;;;1.47;;
14892;SDS011;7538;53.626;9.906;2023-01-15T01:36:47;7.33;;;1.37;;
14892;SDS011;7538;53.626;9.906;2023-01-15T01:39:15;4.03;;;1.20;;
14892;SDS011;7538;53.626;9.906;2023-01-15T01:41:45;5.77;;;1.63;;
14892;SDS011;7538;53.626;9.906;2023-01-15T01:47:17;6.27;;;1.40;;
14892;SDS011;7538;53.626;9.906;2023-01-15T01:49:47;5.67;;;1.80;;
14892;SDS011;7538;53.626;9.906;2023-01-15T01:52:17;7.87;;;1.73;;
14892;SDS011;7538;53.626;9.906;2023-01-15T01:54:48;5.10;;;1.53;;
14892;SDS011;7538;53.626;9.906;2023-01-15T01:57:17;8.60;;;2.30;;
14892;SDS011;7538;53.626;9.906;2023-01-15T01:59:46;6.13;;;1.70;;
14892;SDS011;7538;53.626;9.906;2023-01-15T02:02:14;7.87;;;1.80;;
14892;SDS011;7538;53.626;9.906;2023-01-15T02:04:43;3.50;;;1.50;;
14892;SDS011;7538;53.626;9.906;2023-01-15T02:07:09;4.90;;;1.63;;
14892;SDS011;7538;53.626;9.906;2023-01-15T02:09:36;5.67;;;1.87;;
14892;SDS011;7538;53.626;9.906;2023-01-15T02:12:05;7.20;;;1.77;;
14892;SDS011;7538;53.626;9.906;2023-01-15T02:14:40;4.50;;;1.87;;
14892;SDS011;7538;53.626;9.906;2023-01-15T02:17:14;4.83;;;2.10;;
14892;SDS011;7538;53.626;9.906;2023-01-15T02:19:47;5.77;;;1.80;;
14892;SDS011;7538;53.626;9.906;2023-01-15T02:22:23;6.67;;;1.67;;
14892;SDS011;7538;53.626;9.906;2023-01-15T02:25:02;5.80;;;1.47;;
14892;SDS011;7538;53.626;9.906;2023-01-15T02:27:34;5.90;;;1.90;;
14892;SDS011;7538;53.626;9.906;2023-01-15T02:30:04;6.37;;;2.07;;
14892;SDS011;7538;53.626;9.906;2023-01-15T02:32:36;7.03;;;1.43;;
14892;SDS011;7538;53.626;9.906;2023-01-15T02:35:06;4.87;;;1.50;;
14892;SDS011;7538;53.626;9.906;2023-01-15T02:37:39;5.27;;;1.73;;
14892;SDS011;7538;53.626;9.906;2023-01-15T02:40:10;2.20;;;1.37;;
14892;SDS011;7538;53.626;9.906;2023-01-15T02:42:39;5.80;;;1.90;;
14892;SDS011;7538;53.626;9.906;2023-01-15T02:45:07;5.07;;;1.80;;
14892;SDS011;7538;53.626;9.906;2023-01-15T02:47:36;8.53;;;1.70;;
14892;SDS011;7538;53.626;9.906;2023-01-15T02:50:09;6.07;;;1.90;;
14892;SDS011;7538;53.626;9.906;2023-01-15T02:52:41;7.00;;;1.67;;
14892;SDS011;7538;53.626;9.906;2023-01-15T02:55:12;6.63;;;1.60;;
14892;SDS011;7538;53.626;9.906;2023-01-15T02:57:45;4.37;;;1.50;;
14892;SDS011;7538;53.626;9.906;2023-01-15T03:00:15;11.47;;;2.00;;
14892;SDS011;7538;53.626;9.906;2023-01-15T03:02:45;6.63;;;1.90;;
14892;SDS011;7538;53.626;9.906;2023-01-15T03:05:16;6.83;;;1.67;;
14892;SDS011;7538;53.626;9.906;2023-01-15T03:07:48;6.27;;;1.93;;
14892;SDS011;7538;53.626;9.906;2023-01-15T03:10:17;9.03;;;1.93;;
14892;SDS011;7538;53.626;9.906;2023-01-15T03:12:46;10.33;;;2.17;;
14892;SDS011;7538;53.626;9.906;2023-01-15T03:15:29;7.53;;;1.70;;
14892;SDS011;7538;53.626;9.906;2023-01-15T03:18:22;6.60;;;1.87;;
14892;SDS011;7538;53.626;9.906;2023-01-15T03:20:52;5.83;;;1.67;;
14892;SDS011;7538;53.626;9.906;2023-01-15T03:23:24;16.40;;;2.17;;
14892;SDS011;7538;53.626;9.906;2023-01-15T03:25:53;6.20;;;1.70;;
14892;SDS011;7538;53.626;9.906;2023-01-15T03:28:22;7.80;;;2.07;;
14892;SDS011;7538;53.626;9.906;2023-01-15T03:30:51;6.97;;;1.70;;
14892;SDS011;7538;53.626;9.906;2023-01-15T03:33:18;8.37;;;1.50;;
14892;SDS011;7538;53.626;9.906;2023-01-15T03:35:46;6.57;;;2.00;;
14892;SDS011;7538;53.626;9.906;2023-01-15T03:38:17;5.53;;;2.10;;
14892;SDS011;7538;53.626;9.906;2023-01-15T03:40:48;5.67;;;1.67;;
14892;SDS011;7538;53.626;9.906;2023-01-15T03:43:25;4.83;;;1.33;;
14892;SDS011;7538;53.626;9.906;2023-01-15T03:46:11;7.53;;;1.87;;
14892;SDS011;7538;53.626;9.906;2023-01-15T03:48:45;6.43;;;1.97;;
14892;SDS011;7538;53.626;9.906;2023-01-15T03:51:21;6.13;;;1.97;;
14892;SDS011;7538;53.626;9.906;2023-01-15T03:53:52;7.67;;;1.87;;
14892;SDS011;7538;53.626;9.906;2023-01-15T03:56:22;7.70;;;1.90;;
14892;SDS011;7538;53.626;9.906;2023-01-15T03:58:57;10.83;;;2.97;;
14892;SDS011;7538;53.626;9.906;2023-01-15T04:01:27;11.70;;;3.00;;
14892;SDS011;7538;53.626;9.906;2023-01-15T04:03:58;7.93;;;2.00;;
14892;SDS011;7538;53.626;9.906;2023-01-15T04:06:28;6.17;;;1.90;;
14892;SDS011;7538;53.626;9.906;2023-01-15T04:08:58;8.80;;;2.77;;
14892;SDS011;7538;53.626;9.906;2023-01-15T04:11:25;12.50;;;2.23;;
14892;SDS011;7538;53.626;9.906;2023-01-15T04:13:52;6.17;;;2.30;;
14892;SDS011;7538;53.626;9.906;2023-01-15T04:16:23;8.93;;;2.30;;
14892;SDS011;7538;53.626;9.906;2023-01-15T04:18:51;5.07;;;1.63;;
14892;SDS011;7538;53.626;9.906;2023-01-15T04:21:18;8.23;;;1.80;;
14892;SDS011;7538;53.626;9.906;2023-01-15T04:23:45;7.13;;;1.93;;
14892;SDS011;7538;53.626;9.906;2023-01-15T04:26:12;10.87;;;2.17;;
14892;SDS011;7538;53.626;9.906;2023-01-15T04:28:39;7.57;;;1.73;;
14892;SDS011;7538;53.626;9.906;2023-01-15T04:31:06;7.73;;;2.10;;
14892;SDS011;7538;53.626;9.906;2023-01-15T04:33:35;9.83;;;2.20;;
14892;SDS011;7538;53.626;9.906;2023-01-15T04:36:03;7.53;;;2.07;;
14892;SDS011;7538;53.626;9.906;2023-01-15T04:38:30;7.23;;;2.00;;
14892;SDS011;7538;53.626;9.906;2023-01-15T04:40:59;9.93;;;2.10;;
14892;SDS011;7538;53.626;9.906;2023-01-15T04:43:43;11.80;;;1.80;;
14892;SDS011;7538;53.626;9.906;2023-01-15T04:46:28;10.13;;;2.20;;
14892;SDS011;7538;53.626;9.906;2023-01-15T04:48:56;8.87;;;1.73;;
14892;SDS011;7538;53.626;9.906;2023-01-15T04:51:22;7.17;;;2.00;;
14892;SDS011;7538;53.626;9.906;2023-01-15T04:53:49;8.17;;;1.93;;
14892;SDS011;7538;53.626;9.906;2023-01-15T04:56:16;9.13;;;1.77;;
14892;SDS011;7538;53.626;9.906;2023-01-15T04:58:43;7.67;;;1.93;;
14892;SDS011;7538;53.626;9.906;2023-01-15T05:01:10;7.20;;;1.67;;
14892;SDS011;7538;53.626;9.906;2023-01-15T05:03:37;7.20;;;1.77;;
14892;SDS011;7538;53.626;9.906;2023-01-15T05:06:06;12.37;;;2.37;;
14892;SDS011;7538;53.626;9.906;2023-01-15T05:08:33;6.77;;;1.93;;
14892;SDS011;7538;53.626;9.906;2023-01-15T05:11:00;10.23;;;1.97;;
14892;SDS011;7538;53.626;9.906;2023-01-15T05:13:28;5.23;;;1.80;;
14892;SDS011;7538;53.626;9.906;2023-01-15T05:16:05;6.90;;;2.37;;
14892;SDS011;7538;53.626;9.906;2023-01-15T05:18:33;9.33;;;2.40;;
14892;SDS011;7538;53.626;9.906;2023-01-15T05:20:59;5.40;;;1.80;;
14892;SDS011;7538;53.626;9.906;2023-01-15T05:23:28;9.73;;;2.27;;
14892;SDS011;7538;53.626;9.906;2023-01-15T05:25:54;10.93;;;2.13;;
14892;SDS011;7538;53.626;9.906;2023-01-15T05:28:21;9.13;;;2.10;;
14892;SDS011;7538;53.626;9.906;2023-01-15T05:30:48;10.77;;;2.10;;
14892;SDS011;7538;53.626;9.906;2023-01-15T05:33:15;7.53;;;2.30;;
14892;SDS011;7538;53.626;9.906;2023-01-15T05:35:41;10.67;;;2.63;;
14892;SDS011;7538;53.626;9.906;2023-01-15T05:38:08;11.00;;;1.90;;
14892;SDS011;7538;53.626;9.906;2023-01-15T05:40:36;7.07;;;2.30;;
14892;SDS011;7538;53.626;9.906;2023-01-15T05:43:03;8.00;;;2.13;;
14892;SDS011;7538;53.626;9.906;2023-01-15T05:45:30;4.47;;;1.93;;
14892;SDS011;7538;53.626;9.906;2023-01-15T05:47:59;9.63;;;2.07;;
14892;SDS011;7538;53.626;9.906;2023-01-15T05:50:26;6.37;;;1.83;;
14892;SDS011;7538;53.626;9.906;2023-01-15T05:52:53;8.37;;;1.90;;
14892;SDS011;7538;53.626;9.906;2023-01-15T05:55:19;11.57;;;2.50;;
14892;SDS011;7538;53.626;9.906;2023-01-15T05:57:47;12.50;;;2.33;;
14892;SDS011;7538;53.626;9.906;2023-01-15T06:00:15;6.63;;;1.97;;
14892;SDS011;7538;53.626;9.906;2023-01-15T06:02:42;11.50;;;2.20;;
14892;SDS011;7538;53.626;9.906;2023-01-15T06:05:09;8.50;;;2.13;;
14892;SDS011;7538;53.626;9.906;2023-01-15T06:07:35;10.80;;;2.77;;
14892;SDS011;7538;53.626;9.906;2023-01-15T06:10:03;10.53;;;2.13;;
14892;SDS011;7538;53.626;9.906;2023-01-15T06:12:31;9.53;;;2.00;;
14892;SDS011;7538;53.626;9.906;2023-01-15T06:14:59;7.33;;;2.30;;
14892;SDS011;7538;53.626;9.906;2023-01-15T06:17:26;12.33;;;2.50;;
14892;SDS011;7538;53.626;9.906;2023-01-15T06:19:52;6.47;;;2.00;;
14892;SDS011;7538;53.626;9.906;2023-01-15T06:22:19;7.40;;;1.93;;
14892;SDS011;7538;53.626;9.906;2023-01-15T06:24:46;8.40;;;2.43;;
14892;SDS011;7538;53.626;9.906;2023-01-15T06:27:13;7.03;;;1.73;;
14892;SDS011;7538;53.626;9.906;2023-01-15T06:29:39;5.77;;;1.50;;
14892;SDS011;7538;53.626;9.906;2023-01-15T06:32:07;7.10;;;1.90;;
14892;SDS011;7538;53.626;9.906;2023-01-15T06:34:34;8.43;;;1.97;;
14892;SDS011;7538;53.626;9.906;2023-01-15T06:37:01;8.60;;;2.53;;
14892;SDS011;7538;53.626;9.906;2023-01-15T06:39:28;8.13;;;1.90;;
14892;SDS011;7538;53.626;9.906;2023-01-15T06:41:55;7.90;;;2.27;;
14892;SDS011;7538;53.626;9.906;2023-01-15T06:44:39;13.67;;;2.60;;
14892;SDS011;7538;53.626;9.906;2023-01-15T06:47:24;9.10;;;2.60;;
14892;SDS011;7538;53.626;9.906;2023-01-15T06:49:52;10.50;;;2.37;;
14892;SDS011;7538;53.626;9.906;2023-01-15T06:52:20;8.43;;;2.27;;
14892;SDS011;7538;53.626;9.906;2023-01-15T06:54:47;8.10;;;2.20;;
14892;SDS011;7538;53.626;9.906;2023-01-15T06:57:14;9.07;;;2.30;;
14892;SDS011;7538;53.626;9.906;2023-01-15T06:59:42;9.33;;;1.93;;
14892;SDS011;7538;53.626;9.906;2023-01-15T07:02:09;7.47;;;2.20;;
14892;SDS011;7538;53.626;9.906;2023-01-15T07:04:37;11.50;;;2.67;;
14892;SDS011;7538;53.626;9.906;2023-01-15T07:07:04;7.33;;;2.10;;
14892;SDS011;7538;53.626;9.906;2023-01-15T07:09:31;10.43;;;2.73;;
14892;SDS011;7538;53.626;9.906;2023-01-15T07:11:58;9.10;;;2.10;;
14892;SDS011;7538;53.626;9.906;2023-01-15T07:14:25;7.27;;;1.47;;
14892;SDS011;7538;53.626;9.906;2023-01-15T07:16:53;8.47;;;1.93;;
14892;SDS011;7538;53.626;9.906;2023-01-15T07:19:20;6.70;;;2.43;;
14892;SDS011;7538;53.626;9.906;2023-01-15T07:21:48;11.20;;;2.43;;
14892;SDS011;7538;53.626;9.906;2023-01-15T07:24:16;9.70;;;2.20;;
14892;SDS011;7538;53.626;9.906;2023-01-15T07:26:43;7.80;;;2.27;;
14892;SDS011;7538;53.626;9.906;2023-01-15T07:29:10;10.07;;;2.10;;
14892;SDS011;7538;53.626;9.906;2023-01-15T07:31:37;8.77;;;2.37;;
14892;SDS011;7538;53.626;9.906;2023-01-15T07:34:04;9.23;;;2.30;;
14892;SDS011;7538;53.626;9.906;2023-01-15T07:36:31;5.03;;;1.80;;
14892;SDS011;7538;53.626;9.906;2023-01-15T07:39:01;10.53;;;1.90;;
14892;SDS011;7538;53.626;9.906;2023-01-15T07:41:29;14.07;;;2.40;;
14892;SDS011;7538;53.626;9.906;2023-01-15T07:44:13;10.03;;;2.73;;
14892;SDS011;7538;53.626;9.906;2023-01-15T07:46:58;6.93;;;2.10;;
14892;SDS011;7538;53.626;9.906;2023-01-15T07:49:42;8.20;;;2.03;;
14892;SDS011;7538;53.626;9.906;2023-01-15T07:52:13;11.00;;;3.20;;
14892;SDS011;7538;53.626;9.906;2023-01-15T07:54:43;9.87;;;2.60;;
14892;SDS011;7538;53.626;9.906;2023-01-15T07:57:10;9.57;;;2.23;;
14892;SDS011;7538;53.626;9.906;2023-01-15T07:59:38;9.00;;;2.30;;
14892;SDS011;7538;53.626;9.906;2023-01-15T08:02:05;8.47;;;2.70;;
14892;SDS011;7538;53.626;9.906;2023-01-15T08:04:32;10.43;;;2.00;;
14892;SDS011;7538;53.626;9.906;2023-01-15T08:06:59;9.63;;;2.17;;
14892;SDS011;7538;53.626;9.906;2023-01-15T08:09:27;6.87;;;2.20;;
14892;SDS011;7538;53.626;9.906;2023-01-15T08:11:57;6.40;;;2.27;;
14892;SDS011;7538;53.626;9.906;2023-01-15T08:14:41;8.53;;;2.77;;
14892;SDS011;7538;53.626;9.906;2023-01-15T08:17:25;8.00;;;2.40;;
14892;SDS011;7538;53.626;9.906;2023-01-15T08:19:52;11.63;;;2.37;;
14892;SDS011;7538;53.626;9.906;2023-01-15T08:22:19;7.53;;;2.10;;
14892;SDS011;7538;53.626;9.906;2023-01-15T08:24:46;9.73;;;2.83;;
14892;SDS011;7538;53.626;9.906;2023-01-15T08:27:14;4.53;;;1.80;;
14892;SDS011;7538;53.626;9.906;2023-01-15T08:29:41;5.77;;;2.37;;
14892;SDS011;7538;53.626;9.906;2023-01-15T08:32:08;5.67;;;2.23;;
14892;SDS011;7538;53.626;9.906;2023-01-15T08:34:34;5.27;;;2.00;;
14892;SDS011;7538;53.626;9.906;2023-01-15T08:37:01;7.77;;;2.17;;
14892;SDS011;7538;53.626;9.906;2023-01-15T08:39:28;6.43;;;2.10;;
14892;SDS011;7538;53.626;9.906;2023-01-15T08:41:55;7.70;;;2.07;;
14892;SDS011;7538;53.626;9.906;2023-01-15T08:44:23;9.07;;;2.20;;
14892;SDS011;7538;53.626;9.906;2023-01-15T08:46:51;8.20;;;1.90;;
14892;SDS011;7538;53.626;9.906;2023-01-15T08:49:19;7.77;;;2.03;;
14892;SDS011;7538;53.626;9.906;2023-01-15T08:51:46;11.40;;;2.40;;
14892;SDS011;7538;53.626;9.906;2023-01-15T08:54:16;9.90;;;2.13;;
14892;SDS011;7538;53.626;9.906;2023-01-15T08:56:43;6.93;;;1.83;;
14892;SDS011;7538;53.626;9.906;2023-01-15T08:59:10;9.03;;;2.03;;
14892;SDS011;7538;53.626;9.906;2023-01-15T09:01:38;6.97;;;2.10;;
14892;SDS011;7538;53.626;9.906;2023-01-15T09:04:05;6.97;;;1.93;;
14892;SDS011;7538;53.626;9.906;2023-01-15T09:06:32;9.03;;;2.50;;
14892;SDS011;7538;53.626;9.906;2023-01-15T09:09:00;7.97;;;1.90;;
14892;SDS011;7538;53.626;9.906;2023-01-15T09:11:27;6.93;;;2.30;;
14892;SDS011;7538;53.626;9.906;2023-01-15T09:13:53;5.40;;;2.10;;
14892;SDS011;7538;53.626;9.906;2023-01-15T09:16:20;9.17;;;2.07;;
14892;SDS011;7538;53.626;9.906;2023-01-15T09:18:48;14.63;;;2.30;;
14892;SDS011;7538;53.626;9.906;2023-01-15T09:21:15;6.60;;;2.67;;
14892;SDS011;7538;53.626;9.906;2023-01-15T09:23:42;7.77;;;2.10;;
14892;SDS011;7538;53.626;9.906;2023-01-15T09:26:20;7.90;;;2.27;;
14892;SDS011;7538;53.626;9.906;2023-01-15T09:28:51;8.30;;;1.83;;
14892;SDS011;7538;53.626;9.906;2023-01-15T09:31:18;8.07;;;2.03;;
14892;SDS011;7538;53.626;9.906;2023-01-15T09:33:45;5.97;;;1.80;;
14892;SDS011;7538;53.626;9.906;2023-01-15T09:36:15;9.07;;;2.13;;
14892;SDS011;7538;53.626;9.906;2023-01-15T09:38:43;5.88;;;1.85;;
14892;SDS011;7538;53.626;9.906;2023-01-15T09:41:11;5.63;;;1.50;;
14892;SDS011;7538;53.626;9.906;2023-01-15T09:44:00;6.55;;;1.73;;
14892;SDS011;7538;53.626;9.906;2023-01-15T09:46:48;4.93;;;1.73;;
14892;SDS011;7538;53.626;9.906;2023-01-15T09:49:27;8.27;;;1.88;;
14892;SDS011;7538;53.626;9.906;2023-01-15T09:52:07;4.97;;;2.10;;
14892;SDS011;7538;53.626;9.906;2023-01-15T09:54:42;6.00;;;1.85;;
14892;SDS011;7538;53.626;9.906;2023-01-15T09:57:15;5.90;;;1.77;;
14892;SDS011;7538;53.626;9.906;2023-01-15T09:59:44;6.80;;;1.80;;
14892;SDS011;7538;53.626;9.906;2023-01-15T10:02:16;5.93;;;1.73;;
14892;SDS011;7538;53.626;9.906;2023-01-15T10:04:48;7.22;;;1.75;;
14892;SDS011;7538;53.626;9.906;2023-01-15T10:07:24;6.72;;;1.88;;
14892;SDS011;7538;53.626;9.906;2023-01-15T10:09:56;7.63;;;1.42;;
14892;SDS011;7538;53.626;9.906;2023-01-15T10:12:28;2.67;;;1.55;;
14892;SDS011;7538;53.626;9.906;2023-01-15T10:17:49;3.65;;;1.55;;
14892;SDS011;7538;53.626;9.906;2023-01-15T10:20:26;7.00;;;2.00;;
14892;SDS011;7538;53.626;9.906;2023-01-15T10:23:08;4.38;;;1.85;;
14892;SDS011;7538;53.626;9.906;2023-01-15T10:25:46;5.82;;;1.63;;
14892;SDS011;7538;53.626;9.906;2023-01-15T10:28:17;6.97;;;2.07;;
14892;SDS011;7538;53.626;9.906;2023-01-15T10:30:49;3.63;;;1.70;;
14892;SDS011;7538;53.626;9.906;2023-01-15T10:33:23;5.10;;;1.70;;
14892;SDS011;7538;53.626;9.906;2023-01-15T10:36:06;5.10;;;1.65;;
14892;SDS011;7538;53.626;9.906;2023-01-15T10:38:40;2.35;;;1.40;;
14892;SDS011;7538;53.626;9.906;2023-01-15T10:41:28;6.57;;;1.65;;
14892;SDS011;7538;53.626;9.906;2023-01-15T10:44:08;6.47;;;2.17;;
14892;SDS011;7538;53.626;9.906;2023-01-15T10:46:38;3.87;;;1.50;;
14892;SDS011;7538;53.626;9.906;2023-01-15T10:49:10;7.63;;;2.13;;
14892;SDS011;7538;53.626;9.906;2023-01-15T10:51:40;2.90;;;1.40;;
14892;SDS011;7538;53.626;9.906;2023-01-15T10:54:15;5.07;;;1.60;;
14892;SDS011;7538;53.626;9.906;2023-01-15T10:56:51;5.73;;;1.77;;
14892;SDS011;7538;53.626;9.906;2023-01-15T10:59:29;5.67;;;1.70;;
14892;SDS011;7538;53.626;9.906;2023-01-15T11:02:02;7.10;;;1.70;;
14892;SDS011;7538;53.626;9.906;2023-01-15T11:04:38;4.93;;;1.53;;
14892;SDS011;7538;53.626;9.906;2023-01-15T11:07:07;7.63;;;1.50;;
14892;SDS011;7538;53.626;9.906;2023-01-15T11:09:38;3.90;;;1.63;;
14892;SDS011;7538;53.626;9.906;2023-01-15T11:12:12;4.23;;;1.70;;
14892;SDS011;7538;53.626;9.906;2023-01-15T11:15:11;4.87;;;1.67;;
14892;SDS011;7538;53.626;9.906;2023-01-15T11:17:57;8.53;;;2.13;;
14892;SDS011;7538;53.626;9.906;2023-01-15T11:20:44;6.03;;;1.77;;
14892;SDS011;7538;53.626;9.906;2023-01-15T11:23:12;3.97;;;1.37;;
14892;SDS011;7538;53.626;9.906;2023-01-15T11:25:47;5.33;;;1.43;;
14892;SDS011;7538;53.626;9.906;2023-01-15T11:28:16;5.87;;;1.90;;
14892;SDS011;7538;53.626;9.906;2023-01-15T11:30:51;3.97;;;1.30;;
14892;SDS011;7538;53.626;9.906;2023-01-15T11:33:20;5.43;;;2.00;;
14892;SDS011;7538;53.626;9.906;2023-01-15T11:35:49;6.30;;;1.90;;
14892;SDS011;7538;53.626;9.906;2023-01-15T11:38:22;5.27;;;1.57;;
14892;SDS011;7538;53.626;9.906;2023-01-15T11:40:52;4.80;;;1.40;;
14892;SDS011;7538;53.626;9.906;2023-01-15T11:43:21;4.20;;;1.40;;
14892;SDS011;7538;53.626;9.906;2023-01-15T11:46:20;4.40;;;1.30;;
14892;SDS011;7538;53.626;9.906;2023-01-15T11:49:08;4.27;;;1.50;;
14892;SDS011;7538;53.626;9.906;2023-01-15T11:51:53;4.67;;;1.47;;
14892;SDS011;7538;53.626;9.906;2023-01-15T11:54:23;3.97;;;1.40;;
14892;SDS011;7538;53.626;9.906;2023-01-15T11:56:53;3.27;;;1.30;;
14892;SDS011;7538;53.626;9.906;2023-01-15T11:59:20;3.70;;;1.00;;
14892;SDS011;7538;53.626;9.906;2023-01-15T12:01:49;1.70;;;0.93;;
14892;SDS011;7538;53.626;9.906;2023-01-15T12:04:28;3.20;;;0.80;;
14892;SDS011;7538;53.626;9.906;2023-01-15T12:07:00;1.10;;;0.73;;
14892;SDS011;7538;53.626;9.906;2023-01-15T12:09:31;3.60;;;1.17;;
14892;SDS011;7538;53.626;9.906;2023-01-15T12:12:14;1.80;;;1.17;;
14892;SDS011;7538;53.626;9.906;2023-01-15T12:17:55;1.63;;;0.80;;
14892;SDS011;7538;53.626;9.906;2023-01-15T12:20:38;3.90;;;0.80;;
14892;SDS011;7538;53.626;9.906;2023-01-15T12:23:39;1.67;;;0.70;;
14892;SDS011;7538;53.626;9.906;2023-01-15T12:26:33;0.97;;;0.63;;
14892;SDS011;7538;53.626;9.906;2023-01-15T12:29:08;3.00;;;0.80;;
14892;SDS011;7538;53.626;9.906;2023-01-15T12:31:48;2.17;;;0.60;;
14892;SDS011;7538;53.626;9.906;2023-01-15T12:34:20;2.13;;;0.90;;
14892;SDS011;7538;53.626;9.906;2023-01-15T12:36:50;1.50;;;0.80;;
14892;SDS011;7538;53.626;9.906;2023-01-15T12:39:21;1.47;;;0.80;;
14892;SDS011;7538;53.626;9.906;2023-01-15T12:41:56;1.67;;;1.00;;
14892;SDS011;7538;53.626;9.906;2023-01-15T12:44:44;2.17;;;1.20;;
14892;SDS011;7538;53.626;9.906;2023-01-15T12:47:28;2.90;;;1.13;;
14892;SDS011;7538;53.626;9.906;2023-01-15T12:50:02;2.87;;;1.20;;
14892;SDS011;7538;53.626;9.906;2023-01-15T12:52:38;2.17;;;1.10;;
14892;SDS011;7538;53.626;9.906;2023-01-15T12:55:08;4.40;;;1.40;;
14892;SDS011;7538;53.626;9.906;2023-01-15T12:57:41;5.77;;;1.40;;
14892;SDS011;7538;53.626;9.906;2023-01-15T13:00:17;4.17;;;1.30;;
14892;SDS011;7538;53.626;9.906;2023-01-15T13:03:04;3.50;;;1.10;;
14892;SDS011;7538;53.626;9.906;2023-01-15T13:05:40;3.20;;;1.20;;
14892;SDS011;7538;53.626;9.906;2023-01-15T13:08:13;5.63;;;1.70;;
14892;SDS011;7538;53.626;9.906;2023-01-15T13:10:47;6.87;;;1.80;;
14892;SDS011;7538;53.626;9.906;2023-01-15T13:13:16;3.70;;;1.27;;
14892;SDS011;7538;53.626;9.906;2023-01-15T13:18:44;6.87;;;2.13;;
14892;SDS011;7538;53.626;9.906;2023-01-15T13:21:18;3.87;;;1.80;;
14892;SDS011;7538;53.626;9.906;2023-01-15T13:26:41;5.93;;;1.60;;
14892;SDS011;7538;53.626;9.906;2023-01-15T13:29:21;5.93;;;1.80;;
14892;SDS011;7538;53.626;9.906;2023-01-15T13:31:57;6.67;;;2.47;;
14892;SDS011;7538;53.626;9.906;2023-01-15T13:34:31;3.57;;;1.50;;
14892;SDS011;7538;53.626;9.906;2023-01-15T13:37:02;2.80;;;1.90;;
14892;SDS011;7538;53.626;9.906;2023-01-15T13:39:36;4.83;;;1.70;;
14892;SDS011;7538;53.626;9.906;2023-01-15T13:42:10;4.70;;;1.73;;
14892;SDS011;7538;53.626;9.906;2023-01-15T13:44:57;5.37;;;2.27;;
14892;SDS011;7538;53.626;9.906;2023-01-15T13:47:29;8.60;;;1.83;;
14892;SDS011;7538;53.626;9.906;2023-01-15T13:49:58;4.33;;;1.80;;
14892;SDS011;7538;53.626;9.906;2023-01-15T13:52:27;5.30;;;2.17;;
14892;SDS011;7538;53.626;9.906;2023-01-15T13:54:57;4.53;;;1.67;;
14892;SDS011;7538;53.626;9.906;2023-01-15T13:57:31;4.17;;;1.77;;
14892;SDS011;7538;53.626;9.906;2023-01-15T13:59:59;3.70;;;1.63;;
14892;SDS011;7538;53.626;9.906;2023-01-15T14:02:30;6.03;;;1.83;;
14892;SDS011;7538;53.626;9.906;2023-01-15T14:04:58;5.10;;;1.83;;
14892;SDS011;7538;53.626;9.906;2023-01-15T14:07:31;3.93;;;1.63;;
14892;SDS011;7538;53.626;9.906;2023-01-15T14:10:20;5.90;;;1.80;;
14892;SDS011;7538;53.626;9.906;2023-01-15T14:12:53;5.30;;;2.10;;
14892;SDS011;7538;53.626;9.906;2023-01-15T14:15:32;6.73;;;1.80;;
14892;SDS011;7538;53.626;9.906;2023-01-15T14:18:14;4.83;;;1.90;;
14892;SDS011;7538;53.626;9.906;2023-01-15T14:21:14;5.17;;;1.70;;
14892;SDS011;7538;53.626;9.906;2023-01-15T14:23:58;7.23;;;2.10;;
14892;SDS011;7538;53.626;9.906;2023-01-15T14:26:47;8.67;;;1.97;;
14892;SDS011;7538;53.626;9.906;2023-01-15T14:29:26;6.40;;;1.80;;
14892;SDS011;7538;53.626;9.906;2023-01-15T14:32:07;4.87;;;1.57;;
14892;SDS011;7538;53.626;9.906;2023-01-15T14:34:40;8.87;;;2.33;;
14892;SDS011;7538;53.626;9.906;2023-01-15T14:37:20;4.00;;;1.63;;
14892;SDS011;7538;53.626;9.906;2023-01-15T14:39:50;6.07;;;1.67;;
14892;SDS011;7538;53.626;9.906;2023-01-15T14:42:23;5.27;;;2.00;;
14892;SDS011;7538;53.626;9.906;2023-01-15T14:45:16;8.90;;;2.37;;
14892;SDS011;7538;53.626;9.906;2023-01-15T14:47:49;4.37;;;1.63;;
14892;SDS011;7538;53.626;9.906;2023-01-15T14:50:23;5.67;;;1.60;;
14892;SDS011;7538;53.626;9.906;2023-01-15T14:52:55;4.90;;;1.77;;
14892;SDS011;7538;53.626;9.906;2023-01-15T14:55:27;4.63;;;1.77;;
14892;SDS011;7538;53.626;9.906;2023-01-15T14:57:56;6.00;;;1.93;;
14892;SDS011;7538;53.626;9.906;2023-01-15T15:00:25;7.77;;;2.17;;
14892;SDS011;7538;53.626;9.906;2023-01-15T15:02:58;4.13;;;1.70;;
14892;SDS011;7538;53.626;9.906;2023-01-15T15:05:30;4.60;;;2.00;;
14892;SDS011;7538;53.626;9.906;2023-01-15T15:07:59;7.67;;;2.10;;
14892;SDS011;7538;53.626;9.906;2023-01-15T15:10:30;5.10;;;1.67;;
14892;SDS011;7538;53.626;9.906;2023-01-15T15:13:00;8.80;;;2.17;;
14892;SDS011;7538;53.626;9.906;2023-01-15T15:15:38;2.93;;;1.73;;
14892;SDS011;7538;53.626;9.906;2023-01-15T15:18:14;8.83;;;2.20;;
14892;SDS011;7538;53.626;9.906;2023-01-15T15:20:53;7.13;;;2.30;;
14892;SDS011;7538;53.626;9.906;2023-01-15T15:23:27;7.37;;;1.93;;
14892;SDS011;7538;53.626;9.906;2023-01-15T15:25:58;7.27;;;2.37;;
14892;SDS011;7538;53.626;9.906;2023-01-15T15:28:26;6.57;;;2.10;;
14892;SDS011;7538;53.626;9.906;2023-01-15T15:30:55;4.50;;;2.30;;
14892;SDS011;7538;53.626;9.906;2023-01-15T15:33:27;7.43;;;2.50;;
14892;SDS011;7538;53.626;9.906;2023-01-15T15:36:03;3.67;;;1.90;;
14892;SDS011;7538;53.626;9.906;2023-01-15T15:38:32;4.50;;;2.10;;
14892;SDS011;7538;53.626;9.906;2023-01-15T15:41:03;4.57;;;2.07;;